Main page
METAR-TAF:

METAR-TAF

Airports :

Revelstoke Airport

Revelstoke, British Columbia, Canada

latitude: 50-58N, longitude: 118-11W, elevation: 443 m

Current weather observation

The report was made 43 minutes ago, at 13:00 UTC
Calm wind
Temperature 9°C
Humidity 76%
Pressure 1019 hPa
Visibility: 14.5 km
Clear sky

METAR: CYRV 211300Z AUTO 00000KT 9SM CLR 09/05 A3008 RMK SLP188

Time: 06:43 (13:43 UTC)


TAF: missing

Weather observations and forecasts of more than 4000 airports (METAR and TAF reports).

The available stations are represented by yellow and red dots on the map.

Hover mouse over dot to see the name of the station.

Then click to see weather observations and forecasts.

To change the map : click on the green buttons with a black cross to zoom in, on the green button with a dash to zoom out, or on the green arrows for adjacent maps.


METAR-TAF: